createdAt,value
2023-04-16T00:01:02.039Z,100828.38
2023-04-16T00:03:32.420Z,100827.13
2023-04-16T00:06:03.528Z,100826.75
2023-04-16T00:08:34.191Z,100829.94
2023-04-16T00:11:06.910Z,100827.25
2023-04-16T00:13:37.557Z,100830.59
2023-04-16T00:16:08.700Z,100828.53
2023-04-16T00:18:39.065Z,100826.47
2023-04-16T00:21:09.789Z,100834.03
2023-04-16T00:23:40.422Z,100838.63
2023-04-16T00:26:11.062Z,100843.31
2023-04-16T00:28:45.085Z,100845.31
2023-04-16T00:31:16.133Z,100851.53
2023-04-16T00:33:47.112Z,100850.31
2023-04-16T00:36:17.645Z,100848.53
2023-04-16T00:38:48.673Z,100847.53
2023-04-16T00:41:19.499Z,100845.09
2023-04-16T00:43:51.836Z,100852.97
2023-04-16T00:46:23.690Z,100853.84
2023-04-16T00:48:56.329Z,100851.38
2023-04-16T00:51:28.084Z,100854.97
2023-04-16T00:53:59.770Z,100856.28
2023-04-16T00:56:34.214Z,100856.91
2023-04-16T00:59:05.234Z,100862.31
2023-04-16T01:01:37.013Z,100859.88
2023-04-16T01:04:11.454Z,100866.16
2023-04-16T01:06:45.324Z,100865.56
2023-04-16T01:09:18.488Z,100862.50
2023-04-16T01:11:52.345Z,100865.84
2023-04-16T01:14:23.469Z,100873.78
2023-04-16T01:16:55.010Z,100872.53
2023-04-16T01:19:26.363Z,100867.78
2023-04-16T01:21:57.254Z,100867.13
2023-04-16T01:24:28.193Z,100872.81
2023-04-16T01:27:01.614Z,100869.72
2023-04-16T01:29:33.286Z,100863.09
2023-04-16T01:32:04.600Z,100863.53
2023-04-16T01:34:37.966Z,100866.97
2023-04-16T01:37:08.940Z,100868.03
2023-04-16T01:39:39.869Z,100870.34
2023-04-16T01:42:11.944Z,100867.50
2023-04-16T01:44:42.366Z,100853.38
2023-04-16T01:47:12.852Z,100871.38
2023-04-16T01:49:49.302Z,100873.69
2023-04-16T01:52:21.549Z,100874.34
2023-04-16T01:54:52.543Z,100876.00
2023-04-16T01:57:26.832Z,100866.47
2023-04-16T01:59:57.728Z,100862.09
2023-04-16T02:02:30.272Z,100873.56
2023-04-16T02:05:01.378Z,100866.06
2023-04-16T02:07:32.917Z,100867.75
2023-04-16T02:10:04.354Z,100858.22
2023-04-16T02:12:37.015Z,100858.22
2023-04-16T02:15:08.334Z,100866.56
2023-04-16T02:17:39.472Z,100864.69
2023-04-16T02:20:12.904Z,100867.38
2023-04-16T02:22:57.196Z,100860.75
2023-04-16T02:25:39.298Z,100865.78
2023-04-16T02:28:11.475Z,100859.97
2023-04-16T02:30:44.853Z,100852.47
2023-04-16T02:33:17.286Z,100846.03
2023-04-16T02:35:59.209Z,100853.75
2023-04-16T02:38:30.309Z,100850.00
2023-04-16T02:41:00.621Z,100842.53
2023-04-16T02:43:32.230Z,100842.53
2023-04-16T02:46:02.930Z,100830.50
2023-04-16T02:48:34.153Z,100834.31
2023-04-16T02:51:05.319Z,100841.00
2023-04-16T02:53:36.704Z,100842.66
2023-04-16T02:56:10.456Z,100853.91
2023-04-16T02:58:41.343Z,100836.25
2023-04-16T03:01:12.456Z,100838.41
2023-04-16T03:03:43.672Z,100845.72
2023-04-16T03:06:14.481Z,100847.63
2023-04-16T03:08:45.331Z,100850.38
2023-04-16T03:11:15.681Z,100844.34
2023-04-16T03:13:46.146Z,100853.94
2023-04-16T03:16:17.050Z,100840.41
2023-04-16T03:18:47.435Z,100840.00
2023-04-16T03:21:20.629Z,100836.03
2023-04-16T03:23:51.406Z,100832.50
2023-04-16T03:26:22.710Z,100824.19
2023-04-16T03:28:53.965Z,100825.03
2023-04-16T03:31:26.319Z,100822.94
2023-04-16T03:34:01.173Z,100820.84
2023-04-16T03:36:32.359Z,100813.75
2023-04-16T03:39:03.986Z,100807.50
2023-04-16T03:41:35.581Z,100803.53
2023-04-16T03:44:07.572Z,100805.00
2023-04-16T03:46:39.210Z,100799.75
2023-04-16T03:49:10.304Z,100788.72
2023-04-16T03:51:40.579Z,100793.91
2023-04-16T03:54:11.738Z,100788.72
2023-04-16T03:56:43.078Z,100780.34
2023-04-16T03:59:13.844Z,100773.66
2023-04-16T04:01:44.605Z,100774.94
2023-04-16T04:04:16.928Z,100768.25
2023-04-16T04:07:22.527Z,100763.63
2023-04-16T04:09:56.234Z,100756.97
2023-04-16T04:12:27.545Z,100750.00
2023-04-16T04:14:58.404Z,100748.91
2023-04-16T04:17:31.165Z,100745.59
2023-04-16T04:20:02.489Z,100735.78
2023-04-16T04:22:35.060Z,100728.44
2023-04-16T04:25:06.675Z,100727.16
2023-04-16T04:27:38.490Z,100719.38
2023-04-16T04:30:10.436Z,100718.72
2023-04-16T04:32:42.227Z,100706.78
2023-04-16T04:35:13.784Z,100704.84
2023-04-16T04:37:45.362Z,100694.75
2023-04-16T04:40:21.385Z,100698.59
2023-04-16T04:42:53.925Z,100695.44
2023-04-16T04:45:28.999Z,100679.91
2023-04-16T04:48:02.551Z,100684.53
2023-04-16T04:50:33.926Z,100672.34
2023-04-16T04:53:10.914Z,100657.25
2023-04-16T04:55:42.946Z,100633.81
2023-04-16T04:58:14.610Z,100632.06
2023-04-16T05:00:46.165Z,100632.84
2023-04-16T05:03:22.814Z,100628.19
2023-04-16T05:05:54.178Z,100621.97
2023-04-16T05:08:25.445Z,100625.97
2023-04-16T05:10:57.937Z,100625.75
2023-04-16T05:13:29.471Z,100618.22
2023-04-16T05:16:01.975Z,100610.66
2023-04-16T05:18:34.294Z,100605.81
2023-04-16T05:21:05.485Z,100606.44
2023-04-16T05:23:39.999Z,100585.66
2023-04-16T05:26:12.398Z,100579.97
2023-04-16T05:28:43.914Z,100581.19
2023-04-16T05:31:14.983Z,100571.50
2023-04-16T05:33:49.452Z,100568.13
2023-04-16T05:36:20.472Z,100572.88
2023-04-16T05:38:51.990Z,100563.53
2023-04-16T05:41:25.050Z,100565.59
2023-04-16T05:43:56.360Z,100558.66
2023-04-16T05:46:27.543Z,100560.31
2023-04-16T05:48:58.406Z,100544.34
2023-04-16T05:51:29.215Z,100547.44
2023-04-16T05:54:00.517Z,100549.69
2023-04-16T05:56:34.720Z,100550.44
2023-04-16T05:59:09.019Z,100545.34
2023-04-16T06:01:41.000Z,100564.53
2023-04-16T06:04:12.466Z,100552.72
2023-04-16T06:06:44.595Z,100546.72
2023-04-16T06:09:15.502Z,100559.38
2023-04-16T06:11:47.881Z,100554.19
2023-04-16T06:14:19.067Z,100544.72
2023-04-16T06:16:50.565Z,100543.56
2023-04-16T06:19:24.677Z,100534.06
2023-04-16T06:21:56.113Z,100536.22
2023-04-16T06:24:26.931Z,100532.78
2023-04-16T06:26:58.484Z,100536.22
2023-04-16T06:29:40.372Z,100530.88
2023-04-16T06:32:15.688Z,100533.75
2023-04-16T06:34:47.233Z,100529.75
2023-04-16T06:37:18.922Z,100527.56
2023-04-16T06:39:50.384Z,100534.44
2023-04-16T06:42:22.596Z,100528.03
2023-04-16T06:44:54.350Z,100532.53
2023-04-16T06:47:25.586Z,100535.25
2023-04-16T06:49:56.733Z,100528.75
2023-04-16T06:52:28.292Z,100521.19
2023-04-16T06:55:00.198Z,100507.91
2023-04-16T06:57:31.989Z,100507.44
2023-04-16T07:00:02.551Z,100502.44
2023-04-16T07:02:34.097Z,100497.38
2023-04-16T07:05:05.550Z,100497.25
2023-04-16T07:07:37.021Z,100496.53
2023-04-16T07:10:09.544Z,100502.72
2023-04-16T07:12:41.005Z,100496.66
2023-04-16T07:15:12.937Z,100502.47
2023-04-16T07:17:44.859Z,100498.06
2023-04-16T07:20:15.814Z,100486.47
2023-04-16T07:22:47.494Z,100481.34
2023-04-16T07:25:18.476Z,100479.69
2023-04-16T07:27:49.583Z,100473.75
2023-04-16T07:30:21.878Z,100471.63
2023-04-16T07:32:54.070Z,100477.31
2023-04-16T07:35:25.255Z,100470.44
2023-04-16T07:37:56.834Z,100483.00
2023-04-16T07:40:27.799Z,100476.63
2023-04-16T07:42:59.102Z,100483.00
2023-04-16T07:45:29.872Z,100483.50
2023-04-16T07:48:00.796Z,100478.53
2023-04-16T07:50:31.763Z,100477.81
2023-04-16T07:53:02.980Z,100474.88
2023-04-16T07:55:35.966Z,100465.41
2023-04-16T07:58:08.749Z,100465.50
2023-04-16T08:00:39.501Z,100474.34
2023-04-16T08:03:11.126Z,100473.13
2023-04-16T08:05:42.090Z,100474.16
2023-04-16T08:08:13.337Z,100480.97
2023-04-16T08:10:44.646Z,100484.03
2023-04-16T08:13:15.129Z,100485.88
2023-04-16T08:15:45.678Z,100476.50
2023-04-16T08:18:16.722Z,100469.72
2023-04-16T08:20:47.475Z,100478.63
2023-04-16T08:23:18.602Z,100470.78
2023-04-16T08:25:51.767Z,100473.81
2023-04-16T08:28:25.345Z,100475.25
2023-04-16T08:30:56.956Z,100472.53
2023-04-16T08:33:28.564Z,100487.19
2023-04-16T08:35:59.719Z,100485.13
2023-04-16T08:38:30.678Z,100486.88
2023-04-16T08:41:07.753Z,100480.69
2023-04-16T08:43:40.536Z,100493.91
2023-04-16T08:46:13.402Z,100499.59
2023-04-16T08:48:47.862Z,100492.50
2023-04-16T08:51:19.675Z,100485.41
2023-04-16T08:54:04.495Z,100490.47
2023-04-16T08:56:38.281Z,100504.41
2023-04-16T08:59:09.818Z,100506.97
2023-04-16T09:01:42.948Z,100508.91
2023-04-16T09:04:13.706Z,100510.00
2023-04-16T09:06:45.810Z,100508.16
2023-04-16T09:09:18.615Z,100526.31
2023-04-16T09:11:53.958Z,100531.41
2023-04-16T09:14:28.851Z,100530.34
2023-04-16T09:17:02.334Z,100521.84
2023-04-16T09:19:34.162Z,100526.66
2023-04-16T09:22:05.620Z,100525.88
2023-04-16T09:24:36.736Z,100523.59
2023-04-16T09:27:08.225Z,100525.28
2023-04-16T09:29:41.853Z,100531.59
2023-04-16T09:32:16.698Z,100544.34
2023-04-16T09:35:02.311Z,100539.13
2023-04-16T09:37:34.231Z,100548.97
2023-04-16T09:40:06.320Z,100543.78
2023-04-16T09:42:38.551Z,100543.78
2023-04-16T09:45:13.080Z,100560.50
2023-04-16T09:47:45.515Z,100570.53
2023-04-16T09:50:19.119Z,100566.38
2023-04-16T09:52:52.629Z,100577.41
2023-04-16T09:55:29.715Z,100582.22
2023-04-16T09:58:02.076Z,100592.25
2023-04-16T10:00:33.462Z,100596.44
2023-04-16T10:03:10.675Z,100601.88
2023-04-16T10:05:43.595Z,100607.72
2023-04-16T10:08:15.721Z,100619.41
2023-04-16T10:10:47.505Z,100610.22
2023-04-16T10:13:18.878Z,100620.66
2023-04-16T10:15:50.751Z,100617.75
2023-04-16T10:18:23.243Z,100627.75
2023-04-16T10:20:55.560Z,100635.88
2023-04-16T10:23:27.253Z,100630.69
2023-04-16T10:25:58.665Z,100639.84
2023-04-16T10:28:30.644Z,100647.78
2023-04-16T10:31:07.750Z,100644.47
2023-04-16T10:33:44.251Z,100650.69
2023-04-16T10:36:16.993Z,100653.59
2023-04-16T10:38:49.788Z,100659.88
2023-04-16T10:41:24.989Z,100663.63
2023-04-16T10:44:10.756Z,100671.34
2023-04-16T10:46:43.888Z,100670.50
2023-04-16T10:49:22.411Z,100673.22
2023-04-16T10:52:13.520Z,100679.03
2023-04-16T10:54:44.820Z,100681.75
2023-04-16T10:57:20.682Z,100680.31
2023-04-16T10:59:51.998Z,100691.97
2023-04-16T11:02:24.188Z,100689.47
2023-04-16T11:05:00.221Z,100704.50
2023-04-16T11:07:37.312Z,100712.63
2023-04-16T11:10:09.963Z,100708.03
2023-04-16T11:12:43.302Z,100714.50
2023-04-16T11:15:20.326Z,100719.47
2023-04-16T11:17:53.690Z,100725.94
2023-04-16T11:20:29.326Z,100731.56
2023-04-16T11:23:00.545Z,100737.00
2023-04-16T11:25:34.991Z,100738.44
2023-04-16T11:28:05.924Z,100735.75
2023-04-16T11:30:38.695Z,100742.22
2023-04-16T11:33:12.507Z,100741.56
2023-04-16T11:35:44.507Z,100738.66
2023-04-16T11:38:15.185Z,100735.31
2023-04-16T11:40:46.391Z,100741.59
2023-04-16T11:43:20.989Z,100744.06
2023-04-16T11:46:16.249Z,100751.16
2023-04-16T11:48:57.367Z,100762.81
2023-04-16T11:51:28.509Z,100761.53
2023-04-16T11:54:00.580Z,100762.56
2023-04-16T11:56:34.270Z,100760.25
2023-04-16T11:59:14.007Z,100758.19
2023-04-16T12:02:08.064Z,100768.22
2023-04-16T12:04:39.443Z,100769.03
2023-04-16T12:07:15.141Z,100771.91
2023-04-16T12:09:46.877Z,100773.19
2023-04-16T12:12:32.291Z,100782.78
2023-04-16T12:15:05.435Z,100778.59
2023-04-16T12:17:38.184Z,100782.13
2023-04-16T12:20:14.795Z,100787.13
2023-04-16T12:22:50.542Z,100792.31
2023-04-16T12:25:22.368Z,100789.84
2023-04-16T12:27:56.906Z,100797.31
2023-04-16T12:30:28.374Z,100797.72
2023-04-16T12:33:22.065Z,100802.75
2023-04-16T12:35:53.867Z,100816.06
2023-04-16T12:38:26.564Z,100827.09
2023-04-16T12:40:59.344Z,100821.88
2023-04-16T12:43:31.005Z,100828.09
2023-04-16T12:46:04.689Z,100824.81
2023-04-16T12:48:36.386Z,100829.78
2023-04-16T12:51:07.733Z,100829.59
2023-04-16T12:53:38.809Z,100829.38
2023-04-16T12:56:09.911Z,100824.75
2023-04-16T12:58:41.162Z,100838.53
2023-04-16T13:01:13.176Z,100838.09
2023-04-16T13:03:46.910Z,100841.84
2023-04-16T13:06:18.858Z,100846.81
2023-04-16T13:08:52.266Z,100845.38
2023-04-16T13:11:23.595Z,100851.66
2023-04-16T13:13:54.875Z,100857.25
2023-04-16T13:16:28.698Z,100857.66
2023-04-16T13:19:00.364Z,100862.66
2023-04-16T13:21:31.426Z,100873.06
2023-04-16T13:24:02.393Z,100877.22
2023-04-16T13:26:33.469Z,100874.28
2023-04-16T13:29:04.934Z,100868.88
2023-04-16T13:31:35.994Z,100866.16
2023-04-16T13:34:07.207Z,100865.53
2023-04-16T13:36:38.659Z,100865.53
2023-04-16T13:39:12.835Z,100865.53
2023-04-16T13:41:46.297Z,100880.50
2023-04-16T13:44:17.446Z,100887.59
2023-04-16T13:46:48.905Z,100886.78
2023-04-16T13:49:19.960Z,100888.00
2023-04-16T13:51:51.658Z,100890.50
2023-04-16T13:54:22.873Z,100900.50
2023-04-16T13:56:53.955Z,100909.66
2023-04-16T13:59:24.973Z,100911.28
2023-04-16T14:01:59.227Z,100915.06
2023-04-16T14:04:30.066Z,100913.38
2023-04-16T14:07:01.461Z,100922.53
2023-04-16T14:09:32.681Z,100926.69
2023-04-16T14:12:03.979Z,100920.06
2023-04-16T14:14:34.964Z,100919.69
2023-04-16T14:17:05.966Z,100926.53
2023-04-16T14:19:37.276Z,100928.84
2023-04-16T14:22:09.256Z,100927.63
2023-04-16T14:24:40.494Z,100928.09
2023-04-16T14:27:12.897Z,100925.09
2023-04-16T14:29:45.425Z,100922.38
2023-04-16T14:32:17.642Z,100925.94
2023-04-16T14:34:48.610Z,100925.97
2023-04-16T14:37:19.948Z,100930.97
2023-04-16T14:39:51.551Z,100926.38
2023-04-16T14:42:23.434Z,100921.34
2023-04-16T14:44:59.420Z,100924.47
2023-04-16T14:47:31.126Z,100928.84
2023-04-16T14:50:02.915Z,100928.84
2023-04-16T14:52:34.634Z,100926.53
2023-04-16T14:55:06.860Z,100924.66
2023-04-16T14:57:39.462Z,100925.88
2023-04-16T15:00:11.974Z,100937.97
2023-04-16T15:02:42.948Z,100924.19
2023-04-16T15:05:14.401Z,100922.53
2023-04-16T15:07:45.550Z,100919.66
2023-04-16T15:10:18.594Z,100922.16
2023-04-16T15:12:49.806Z,100921.72
2023-04-16T15:15:21.022Z,100920.88
2023-04-16T15:17:53.042Z,100913.38
2023-04-16T15:20:24.037Z,100913.78
2023-04-16T15:22:55.033Z,100910.69
2023-04-16T15:25:26.695Z,100920.88
2023-04-16T15:27:57.538Z,100906.69
2023-04-16T15:30:28.514Z,100900.00
2023-04-16T15:32:59.776Z,100895.88
2023-04-16T15:35:30.945Z,100898.13
2023-04-16T15:38:02.567Z,100885.47
2023-04-16T15:40:34.464Z,100884.41
2023-04-16T15:43:06.064Z,100892.91
2023-04-16T15:45:37.002Z,100894.59
2023-04-16T15:48:08.369Z,100900.59
2023-04-16T15:50:40.172Z,100911.22
2023-04-16T15:53:12.144Z,100910.78
2023-04-16T15:55:44.199Z,100911.63
2023-04-16T15:58:15.129Z,100912.25
2023-04-16T16:00:50.814Z,100917.03
2023-04-16T16:03:23.327Z,100907.50
2023-04-16T16:05:54.822Z,100905.56
2023-04-16T16:08:26.054Z,100914.56
2023-04-16T16:10:57.504Z,100915.41
2023-04-16T16:13:29.089Z,100917.47
2023-04-16T16:16:00.150Z,100908.69
2023-04-16T16:18:31.652Z,100909.94
2023-04-16T16:21:02.506Z,100910.13
2023-04-16T16:23:34.071Z,100911.16
2023-04-16T16:26:09.364Z,100905.75
2023-04-16T16:28:42.102Z,100896.81
2023-04-16T16:31:13.608Z,100895.53
2023-04-16T16:33:44.425Z,100902.81
2023-04-16T16:36:15.617Z,100886.56
2023-04-16T16:39:05.398Z,100889.50
2023-04-16T16:41:42.855Z,100881.56
2023-04-16T16:44:13.617Z,100875.31
2023-04-16T16:46:45.050Z,100875.09
2023-04-16T16:49:17.549Z,100870.94
2023-04-16T16:51:49.605Z,100864.91
2023-04-16T16:54:21.308Z,100859.91
2023-04-16T16:56:55.687Z,100866.97
2023-04-16T16:59:26.834Z,100862.59
2023-04-16T17:01:57.695Z,100862.38
2023-04-16T17:04:28.892Z,100854.84
2023-04-16T17:07:01.301Z,100851.94
2023-04-16T17:09:32.376Z,100847.56
2023-04-16T17:12:04.138Z,100848.81
2023-04-16T17:14:35.861Z,100843.19
2023-04-16T17:17:06.702Z,100840.69
2023-04-16T17:19:37.984Z,100830.06
2023-04-16T17:22:09.808Z,100833.63
2023-04-16T17:24:40.883Z,100824.84
2023-04-16T17:27:11.937Z,100819.84
2023-04-16T17:29:42.900Z,100818.19
2023-04-16T17:32:14.216Z,100814.84
2023-04-16T17:34:45.418Z,100808.19
2023-04-16T17:37:16.637Z,100809.03
2023-04-16T17:39:47.661Z,100802.97
2023-04-16T17:42:18.674Z,100799.00
2023-04-16T17:44:50.145Z,100799.00
2023-04-16T17:47:21.149Z,100799.41
2023-04-16T17:49:58.333Z,100783.16
2023-04-16T17:52:29.762Z,100776.09
2023-04-16T17:55:04.870Z,100776.91
2023-04-16T17:57:36.430Z,100769.41
2023-04-16T18:00:12.790Z,100768.38
2023-04-16T18:02:44.738Z,100769.41
2023-04-16T18:05:16.132Z,100769.41
2023-04-16T18:07:48.182Z,100759.78
2023-04-16T18:10:19.165Z,100760.38
2023-04-16T18:12:49.961Z,100751.63
2023-04-16T18:15:23.679Z,100761.41
2023-04-16T18:17:55.491Z,100754.34
2023-04-16T18:20:26.207Z,100755.38
2023-04-16T18:22:57.289Z,100756.56
2023-04-16T18:25:34.521Z,100758.47
2023-04-16T18:28:07.347Z,100755.75
2023-04-16T18:30:40.368Z,100755.53
2023-04-16T18:33:42.776Z,100752.03
2023-04-16T18:36:03.532Z,100753.69
2023-04-16T18:38:36.960Z,100753.06
2023-04-16T18:41:18.661Z,100744.94
2023-04-16T18:43:49.720Z,100745.97
2023-04-16T18:46:20.631Z,100744.31
2023-04-16T18:48:51.728Z,100740.78
2023-04-16T18:51:23.105Z,100744.31
2023-04-16T18:53:54.258Z,100743.66
2023-04-16T18:56:25.271Z,100738.25
2023-04-16T18:58:56.242Z,100738.25
2023-04-16T19:01:27.385Z,100739.28
2023-04-16T19:03:58.224Z,100740.94
2023-04-16T19:06:30.192Z,100738.00
2023-04-16T19:09:01.263Z,100733.47
2023-04-16T19:11:33.187Z,100732.59
2023-04-16T19:14:04.278Z,100741.75
2023-04-16T19:16:36.114Z,100731.34
2023-04-16T19:19:07.262Z,100735.06
2023-04-16T19:21:41.017Z,100737.13
2023-04-16T19:24:12.504Z,100733.78
2023-04-16T19:26:43.792Z,100740.06
2023-04-16T19:29:15.134Z,100739.59
2023-04-16T19:31:50.881Z,100745.63
2023-04-16T19:34:22.232Z,100751.25
2023-04-16T19:36:53.169Z,100755.81
2023-04-16T19:39:27.264Z,100757.69
2023-04-16T19:41:58.903Z,100770.34
2023-04-16T19:44:30.717Z,100774.94
2023-04-16T19:47:02.336Z,100775.75
2023-04-16T19:49:35.732Z,100770.75
2023-04-16T19:52:07.036Z,100768.25
2023-04-16T19:54:38.703Z,100771.13
2023-04-16T19:57:12.202Z,100779.06
2023-04-16T19:59:43.709Z,100773.84
2023-04-16T20:02:14.870Z,100779.44
2023-04-16T20:04:45.799Z,100786.91
2023-04-16T20:07:16.814Z,100795.19
2023-04-16T20:09:48.174Z,100795.19
2023-04-16T20:12:19.654Z,100798.13
2023-04-16T20:14:51.318Z,100798.13
2023-04-16T20:17:22.160Z,100813.47
2023-04-16T20:19:53.512Z,100804.94
2023-04-16T20:22:25.845Z,100797.66
2023-04-16T20:24:57.642Z,100797.19
2023-04-16T20:27:28.435Z,100803.41
2023-04-16T20:30:00.628Z,100802.13
2023-04-16T20:32:49.754Z,100804.66
2023-04-16T20:35:20.857Z,100818.97
2023-04-16T20:37:51.709Z,100816.00
2023-04-16T20:40:25.074Z,100831.84
2023-04-16T20:42:57.645Z,100832.44
2023-04-16T20:45:33.290Z,100829.72
2023-04-16T20:48:04.414Z,100837.38
2023-04-16T20:50:38.574Z,100839.03
2023-04-16T20:53:13.061Z,100832.16
2023-04-16T20:55:47.788Z,100841.09
2023-04-16T20:58:19.084Z,100840.44
2023-04-16T21:00:54.300Z,100839.41
2023-04-16T21:03:26.305Z,100837.38
2023-04-16T21:05:57.887Z,100832.34
2023-04-16T21:08:28.767Z,100838.59
2023-04-16T21:10:59.907Z,100839.81
2023-04-16T21:13:31.585Z,100846.06
2023-04-16T21:16:02.446Z,100850.59
2023-04-16T21:18:33.870Z,100852.66
2023-04-16T21:21:05.862Z,100856.22
2023-04-16T21:23:37.329Z,100858.28
2023-04-16T21:26:08.567Z,100868.88
2023-04-16T21:28:39.884Z,100881.09
2023-04-16T21:31:10.889Z,100883.41
2023-04-16T21:33:42.251Z,100885.28
2023-04-16T21:36:13.408Z,100886.91
2023-04-16T21:38:44.541Z,100889.19
2023-04-16T21:41:15.377Z,100903.34
2023-04-16T21:43:46.283Z,100900.00
2023-04-16T21:46:17.411Z,100899.53
2023-04-16T21:48:49.643Z,100901.41
2023-04-16T21:51:21.147Z,100902.44
2023-04-16T21:53:55.223Z,100902.44
2023-04-16T21:56:27.246Z,100902.44
2023-04-16T21:58:58.332Z,100906.19
2023-04-16T22:01:29.671Z,100913.25
2023-04-16T22:04:03.058Z,100916.97
2023-04-16T22:06:35.046Z,100931.69
2023-04-16T22:09:07.834Z,100925.63
2023-04-16T22:11:39.567Z,100943.72
2023-04-16T22:14:10.931Z,100947.06
2023-04-16T22:16:43.016Z,100947.81
2023-04-16T22:19:15.233Z,100949.75
2023-04-16T22:21:46.448Z,100957.59
2023-04-16T22:24:18.057Z,100951.72
2023-04-16T22:26:49.179Z,100952.56
2023-04-16T22:29:20.438Z,100965.41
2023-04-16T22:31:52.846Z,100959.63
2023-04-16T22:34:24.878Z,100968.13
2023-04-16T22:36:57.376Z,100962.06
2023-04-16T22:39:29.834Z,100965.41
2023-04-16T22:42:01.928Z,100964.09
2023-04-16T22:44:33.200Z,100968.47
2023-04-16T22:47:05.490Z,100977.59
2023-04-16T22:49:46.929Z,100981.78
2023-04-16T22:52:17.694Z,100989.06
2023-04-16T22:54:48.576Z,100993.97
2023-04-16T22:57:22.121Z,100997.53
2023-04-16T22:59:54.180Z,101005.63
2023-04-16T23:02:28.682Z,101003.59
2023-04-16T23:05:01.939Z,101001.91
2023-04-16T23:07:33.038Z,101012.34
2023-04-16T23:10:05.250Z,101018.75
2023-04-16T23:12:38.311Z,101023.88
2023-04-16T23:15:10.394Z,101027.22
2023-04-16T23:17:41.472Z,101030.22
2023-04-16T23:20:14.450Z,101037.28
2023-04-16T23:22:46.057Z,101041.84
2023-04-16T23:25:19.401Z,101056.28
2023-04-16T23:27:50.999Z,101054.44
2023-04-16T23:30:24.909Z,101059.09
2023-04-16T23:32:56.022Z,101063.84
2023-04-16T23:35:27.543Z,101065.81
2023-04-16T23:37:58.725Z,101061.31
2023-04-16T23:40:29.525Z,101063.84
2023-04-16T23:43:00.743Z,101080.50
2023-04-16T23:45:31.754Z,101085.53
2023-04-16T23:48:03.283Z,101079.22
2023-04-16T23:50:38.018Z,101093.22
2023-04-16T23:53:08.767Z,101092.00
2023-04-16T23:55:42.979Z,101102.06
2023-04-16T23:58:14.411Z,101109.16
